KAIA

Alliance Municipal Airport

Alliance, Nebraska, USA
METAR KAIA 242353Z AUTO 36015KT 10SM FEW026 OVC085 04/M02 A3039 RMK AO2 SLP309 T00391017 10044 20017 50000
Observed Flight Rules
Apr-24 @ 23:53 UTC (32 minutes ago) Visual Flight Rules
Wind Visibility Clouds
360° at 15 knots 10 miles
  • Few at 2,600' AGL
  • Overcast at 8,500' AGL
Temperatures Readings
Current 4°C / 39°F
Dewpoint -2°C / 28°F
Humidity 65%
Altimeter 30.39" Hg
Pressure 1030.9 hPa
Elevation 1196
METAR KAIA 242353Z AUTO 36015KT 10SM FEW026 OVC085 04/M02 A3039 RMK AO2 SLP309 T00391017 10044 20017 50000
Observed Flight Rules
Apr-24 @ 23:53 UTC
(32 minutes ago)
VFR
Wind Visibility
360° at 15 knots 10 miles
Clouds
  • Few at 2,600' AGL
  • Overcast at 8,500' AGL
Temperature Dewpoint
4°C / 39°F -2°C / 28°F
Humidity Altimeter Pressure
65% 30.39" Hg 1030.9 hPa